Time;durP1;ratioP1;P1;durP2;ratioP2;P2;SDS_P1;SDS_P2;PMS_P1;PMS_P2;Temp;Humidity;BMP_temperature;BMP_pressure;BME280_temperature;BME280_humidity;BME280_pressure;Samples;Min_cycle;Max_cycle;Signal;HPM_P1;HPM_P2
2023/06/01 00:02:22;;;;;;;;;19.00;17.50;;;;;13.45;99.62;99772.00;6280201;20;2844119;-60
2023/06/01 00:04:50;;;;;;;;;21.00;18.50;;;;;13.72;98.93;99775.41;6281179;20;2843992;-61
2023/06/01 00:07:18;;;;;;;;;20.00;18.00;;;;;13.57;99.46;99772.00;6278348;20;2500295;-60
2023/06/01 00:09:46;;;;;;;;;20.00;18.00;;;;;13.61;98.62;99769.91;6279930;20;2841982;-61
2023/06/01 00:12:14;;;;;;;;;17.00;17.00;;;;;13.58;99.13;99767.44;6277715;20;2829570;-60
2023/06/01 00:14:43;;;;;;;;;20.00;17.00;;;;;13.77;99.03;99770.53;6280540;20;2825391;-60
2023/06/01 00:17:11;;;;;;;;;20.00;17.00;;;;;13.84;98.72;99769.09;6278964;20;2830583;-60
2023/06/01 00:19:38;;;;;;;;;20.00;17.00;;;;;13.77;98.38;99756.16;6279015;20;2500985;-60
2023/06/01 00:22:09;;;;;;;;;20.33;16.33;;;;;13.88;98.99;99758.97;6277117;20;3558669;-60
2023/06/01 00:24:38;;;;;;;;;20.00;18.00;;;;;13.84;98.22;99752.91;6279185;20;2839858;-60
2023/06/01 00:27:07;;;;;;;;;21.50;18.00;;;;;13.72;98.73;99759.22;6277756;20;2833689;-61
2023/06/01 00:29:35;;;;;;;;;19.50;18.00;;;;;14.00;98.76;99758.03;6279629;20;2825292;-60
2023/06/01 00:32:04;;;;;;;;;20.50;19.50;;;;;13.91;98.39;99757.88;6277539;20;2833661;-61
2023/06/01 00:34:32;;;;;;;;;20.50;18.00;;;;;13.98;97.42;99761.81;6280661;20;2851320;-60
2023/06/01 00:36:59;;;;;;;;;17.00;16.50;;;;;13.75;97.17;99766.25;6277752;20;2500344;-59
2023/06/01 00:39:28;;;;;;;;;19.50;18.00;;;;;13.68;97.90;99760.41;6278931;20;2835706;-60
2023/06/01 00:41:56;;;;;;;;;18.50;18.00;;;;;13.22;97.80;99754.75;6277642;20;2828446;-59
2023/06/01 00:44:24;;;;;;;;;23.00;17.00;;;;;13.39;98.83;99754.44;6274886;20;2491967;-60
2023/06/01 00:46:52;;;;;;;;;19.00;19.00;;;;;12.90;98.49;99753.38;6275263;20;2492064;-60
2023/06/01 00:49:20;;;;;;;;;19.00;17.50;;;;;13.24;98.78;99750.97;6278773;20;2500325;-60
2023/06/01 00:51:48;;;;;;;;;14.67;14.67;;;;;13.33;97.32;99763.84;6279687;20;3540918;-59
2023/06/01 00:54:16;;;;;;;;;16.67;14.67;;;;;13.36;97.54;99763.63;6281456;20;3547185;-59
2023/06/01 00:56:45;;;;;;;;;17.00;16.67;;;;;13.04;98.41;99765.03;6286275;20;3560687;-60
2023/06/01 00:59:13;;;;;;;;;18.33;16.00;;;;;13.24;98.66;99760.91;6287017;20;3558607;-60
2023/06/01 01:01:43;;;;;;;;;15.33;15.33;;;;;13.14;97.64;99761.56;6315874;20;3542988;-61
2023/06/01 01:04:14;;;;;;;;;21.00;16.00;;;;;12.93;99.18;99755.84;6315333;20;2826508;-60
2023/06/01 01:07:00;;;;;;;;;20.00;17.00;;;;;12.90;100.00;99761.47;6284373;20;3571096;-60
2023/06/01 01:09:48;;;;;;;;;20.00;17.50;;;;;12.86;100.00;99756.41;6282217;20;2500219;-60
2023/06/01 01:12:58;;;;;;;;;18.00;16.50;;;;;12.61;100.00;99758.09;6284026;20;2834728;-59
2023/06/01 01:15:41;;;;;;;;;17.33;16.67;;;;;12.72;99.97;99765.44;6284539;20;2823353;-60
2023/06/01 01:18:39;;;;;;;;;17.00;16.00;;;;;12.55;100.00;99750.44;6314028;20;2491953;-60
2023/06/01 01:21:22;;;;;;;;;20.00;17.00;;;;;12.67;100.00;99751.44;6286793;20;2831556;-61
2023/06/01 01:24:23;;;;;;;;;17.00;16.50;;;;;12.87;98.86;99753.56;6281695;20;2822164;-61
2023/06/01 01:27:15;;;;;;;;;18.00;14.00;;;;;12.99;97.10;99748.31;6283521;20;2811861;-60
2023/06/01 01:29:46;;;;;;;;;19.00;16.33;;;;;12.93;97.88;99741.53;6281794;20;3572206;-60
2023/06/01 01:32:14;;;;;;;;;18.00;17.00;;;;;13.03;97.35;99744.41;6281409;20;2496152;-60
2023/06/01 01:34:45;;;;;;;;;19.00;19.00;;;;;13.03;97.55;99741.72;6280760;20;2714975;-61
2023/06/01 01:37:13;;;;;;;;;16.67;16.67;;;;;13.11;97.73;99739.34;6306658;20;3558718;-60
2023/06/01 01:39:42;;;;;;;;;21.00;16.50;;;;;12.89;98.32;99750.78;6311031;20;2826390;-60
2023/06/01 01:42:09;;;;;;;;;23.00;18.00;;;;;13.02;98.80;99746.25;6277788;20;2496082;-59
2023/06/01 01:44:37;;;;;;;;;25.00;21.50;;;;;12.87;98.79;99756.28;6283195;20;2839910;-60
2023/06/01 01:47:12;;;;;;;;;17.00;16.50;;;;;12.89;98.25;99754.34;6268872;20;2496114;-60
2023/06/01 01:49:45;;;;;;;;;26.50;24.00;;;;;12.97;98.56;99753.81;6270012;20;2851450;-60
2023/06/01 01:52:25;;;;;;;;;31.67;25.00;;;;;13.02;98.19;99750.78;6282335;20;3598285;-60
2023/06/01 01:54:56;;;;;;;;;33.33;32.00;;;;;13.02;98.29;99750.78;6279049;20;3617984;-59
2023/06/01 01:57:26;;;;;;;;;33.67;32.00;;;;;12.79;98.81;99745.16;6279878;20;3600235;-61
2023/06/01 01:59:55;;;;;;;;;30.67;26.33;;;;;12.44;99.91;99748.47;6278500;20;3600376;-60
2023/06/01 02:02:23;;;;;;;;;24.50;20.50;;;;;12.46;99.99;99737.63;6276337;20;2845212;-60
2023/06/01 02:04:51;;;;;;;;;29.50;21.50;;;;;12.52;99.67;99734.50;6277394;20;2851431;-60
2023/06/01 02:07:20;;;;;;;;;21.50;18.00;;;;;12.38;100.00;99734.59;6280564;20;2835673;-59
2023/06/01 02:09:48;;;;;;;;;23.00;21.00;;;;;12.66;100.00;99736.22;6283584;20;2828455;-61
2023/06/01 02:12:17;;;;;;;;;26.00;23.00;;;;;12.59;99.53;99729.56;6283305;20;2832729;-60
2023/06/01 02:14:45;;;;;;;;;23.00;20.50;;;;;12.49;99.47;99730.19;6284483;20;2871133;-60
2023/06/01 02:17:15;;;;;;;;;17.00;16.00;;;;;12.53;99.49;99725.44;6280285;20;2491932;-59
2023/06/01 02:19:44;;;;;;;;;23.50;17.50;;;;;12.46;99.59;99730.38;6281112;20;2839903;-60
2023/06/01 02:22:12;;;;;;;;;23.00;19.33;;;;;12.37;100.00;99731.00;6283445;20;3575270;-59
2023/06/01 02:24:40;;;;;;;;;21.50;19.00;;;;;12.27;99.75;99729.94;6283096;20;2832566;-60
2023/06/01 02:27:08;;;;;;;;;13.00;13.00;;;;;12.78;97.43;99723.75;6280989;20;3522193;-60
2023/06/01 02:29:37;;;;;;;;;16.00;14.00;;;;;12.26;97.86;99728.19;6312037;20;2808639;-60
2023/06/01 02:32:04;;;;;;;;;18.00;18.00;;;;;11.93;99.89;99726.81;6276881;20;2500436;-60
2023/06/01 02:34:33;;;;;;;;;15.67;14.33;;;;;12.34;99.41;99719.59;6282543;20;3538805;-59
2023/06/01 02:37:01;;;;;;;;;18.00;16.33;;;;;11.93;99.01;99724.13;6281338;20;3561921;-60
2023/06/01 02:39:29;;;;;;;;;19.50;18.00;;;;;11.75;99.31;99718.09;6282738;20;2831686;-60
2023/06/01 02:41:57;;;;;;;;;16.50;15.50;;;;;11.76;99.89;99717.13;6285278;20;2809792;-60
2023/06/01 02:44:24;;;;;;;;;23.00;18.00;;;;;11.55;100.00;99715.84;6283646;20;2496077;-61
2023/06/01 02:46:51;;;;;;;;;17.00;15.00;;;;;11.68;100.00;99711.38;6283782;20;2498228;-61
2023/06/01 02:49:20;;;;;;;;;20.50;17.00;;;;;11.82;100.00;99710.47;6282365;20;2813798;-61
2023/06/01 02:51:47;;;;;;;;;18.00;12.50;;;;;11.79;100.00;99713.38;6282260;20;2808736;-59
2023/06/01 02:54:15;;;;;;;;;19.50;17.00;;;;;11.82;100.00;99705.09;6280683;20;2489900;-60
2023/06/01 02:56:42;;;;;;;;;21.50;17.50;;;;;12.11;100.00;99718.44;6280372;20;2500401;-60
2023/06/01 02:59:09;;;;;;;;;21.00;18.00;;;;;11.90;100.00;99718.06;6280362;20;2498130;-59
2023/06/01 03:01:38;;;;;;;;;26.00;22.00;;;;;11.91;100.00;99717.97;6283071;20;2834919;-59
2023/06/01 03:04:07;;;;;;;;;25.00;21.00;;;;;11.84;99.42;99716.63;6281391;20;2849397;-61
2023/06/01 03:06:37;;;;;;;;;22.00;20.00;;;;;11.80;100.00;99720.50;6275297;20;2500445;-59
2023/06/01 03:09:12;;;;;;;;;21.00;17.50;;;;;11.90;100.00;99724.34;6282152;20;2832752;-60
2023/06/01 03:11:42;;;;;;;;;19.00;17.50;;;;;11.76;100.00;99724.34;6280070;20;2496124;-60
2023/06/01 03:14:10;;;;;;;;;20.33;19.00;;;;;11.75;100.00;99722.63;6283799;20;3579494;-60
2023/06/01 03:16:38;;;;;;;;;18.50;17.00;;;;;11.69;100.00;99718.50;6279124;20;2830540;-61
2023/06/01 03:19:05;;;;;;;;;23.50;19.00;;;;;12.17;99.82;99712.69;6280222;20;2496196;-56
2023/06/01 03:21:34;;;;;;;;;28.00;24.00;;;;;12.01;100.00;99708.31;6283469;20;3595163;-59
2023/06/01 03:24:03;;;;;;;;;27.33;26.00;;;;;12.26;100.00;99707.50;6282039;20;2853578;-61
2023/06/01 03:26:31;;;;;;;;;24.00;23.67;;;;;12.41;99.44;99711.00;6312032;20;3571204;-60
2023/06/01 03:29:00;;;;;;;;;22.67;21.00;;;;;12.40;99.02;99706.59;6309511;20;3575520;-60
2023/06/01 03:31:28;;;;;;;;;19.00;19.00;;;;;12.19;100.00;99706.22;6315651;20;3566961;-59
2023/06/01 03:33:56;;;;;;;;;17.00;17.00;;;;;12.82;97.51;99715.34;6318221;20;3559643;-59
2023/06/01 03:36:25;;;;;;;;;18.00;18.00;;;;;12.65;97.25;99707.56;6303767;20;3556633;-59
2023/06/01 03:38:53;;;;;;;;;23.00;19.50;;;;;12.60;98.60;99710.56;6289499;20;2823204;-59
2023/06/01 03:41:22;;;;;;;;;26.50;21.50;;;;;12.78;97.04;99715.66;6282232;20;2854496;-60
2023/06/01 03:43:51;;;;;;;;;23.67;20.67;;;;;13.07;96.92;99710.91;6276354;20;2841943;-60
2023/06/01 03:46:19;;;;;;;;;25.00;22.00;;;;;13.05;97.23;99710.13;6301815;20;2846219;-60
2023/06/01 03:48:48;;;;;;;;;24.00;23.00;;;;;13.22;97.00;99712.50;6276981;20;3598204;-61
2023/06/01 03:51:17;;;;;;;;;26.00;22.33;;;;;13.22;95.64;99711.59;6313256;20;2856612;-60
2023/06/01 03:53:46;;;;;;;;;25.67;23.00;;;;;13.32;95.98;99718.09;6317062;20;3574289;-60
2023/06/01 03:56:15;;;;;;;;;18.67;16.00;;;;;13.42;94.23;99721.00;6277251;20;3560724;-61
2023/06/01 03:58:42;;;;;;;;;15.00;15.00;;;;;13.43;94.29;99722.72;6285094;20;2803411;-60
2023/06/01 04:01:16;;;;;;;;;24.00;14.67;;;;;13.69;92.90;99721.69;6278973;20;3575287;-62
2023/06/01 04:03:44;;;;;;;;;16.00;16.00;;;;;13.48;94.56;99718.72;6280924;20;2492053;-60
2023/06/01 04:06:13;;;;;;;;;21.00;19.00;;;;;13.79;93.97;99720.00;6277555;20;2476782;-60
2023/06/01 04:08:48;;;;;;;;;22.50;20.50;;;;;13.75;93.73;99721.22;6281769;20;2830497;-60
2023/06/01 04:11:17;;;;;;;;;26.00;19.00;;;;;13.97;93.69;99722.31;6282041;20;2850269;-60
2023/06/01 04:13:45;;;;;;;;;18.00;16.00;;;;;13.82;92.50;99722.50;6281928;20;2823287;-60
2023/06/01 04:16:13;;;;;;;;;15.33;13.00;;;;;13.96;92.91;99723.28;6279818;20;3542040;-59
2023/06/01 04:18:40;;;;;;;;;22.00;17.00;;;;;13.99;91.90;99723.06;6277824;20;2491959;-60
2023/06/01 04:21:09;;;;;;;;;15.67;15.00;;;;;14.31;90.55;99719.75;6282551;20;3536829;-60
2023/06/01 04:23:37;;;;;;;;;17.00;16.33;;;;;14.32;90.25;99734.97;6276746;20;3560658;-61
2023/06/01 04:26:05;;;;;;;;;16.00;16.00;;;;;14.33;90.57;99732.16;6282919;20;3562754;-61
2023/06/01 04:28:33;;;;;;;;;14.67;13.00;;;;;14.48;89.72;99727.41;6272143;20;3537765;-61
2023/06/01 04:31:02;;;;;;;;;15.50;15.50;;;;;14.71;88.40;99736.47;6281815;20;2815893;-60
2023/06/01 04:33:30;;;;;;;;;17.33;15.33;;;;;15.01;87.95;99722.41;6280850;20;2823290;-60
2023/06/01 04:35:58;;;;;;;;;19.50;18.00;;;;;15.38;85.76;99730.28;6309102;20;2483632;-61
2023/06/01 04:38:26;;;;;;;;;18.50;16.00;;;;;15.80;83.10;99735.91;6274229;20;2496230;-61
2023/06/01 04:40:53;;;;;;;;;16.50;16.50;;;;;16.11;81.99;99731.47;6281627;20;2487861;-61
2023/06/01 04:43:23;;;;;;;;;14.00;14.00;;;;;15.99;82.63;99735.22;6274926;20;2804843;-60
2023/06/01 04:45:51;;;;;;;;;18.00;13.00;;;;;15.70;85.58;99734.94;6278358;20;2500324;-61
2023/06/01 04:48:20;;;;;;;;;19.67;16.00;;;;;16.08;83.37;99733.59;6280673;20;3567058;-61
2023/06/01 04:50:48;;;;;;;;;18.50;15.50;;;;;16.30;81.91;99738.94;6278562;20;2832603;-61
2023/06/01 04:53:16;;;;;;;;;15.00;14.50;;;;;16.34;83.03;99732.25;6280810;20;2795104;-61
2023/06/01 04:55:44;;;;;;;;;19.00;15.33;;;;;16.73;82.88;99735.25;6277728;20;3552320;-60
2023/06/01 04:58:12;;;;;;;;;12.67;12.67;;;;;17.35;78.39;99736.16;6277976;20;3530666;-60
2023/06/01 05:00:40;;;;;;;;;18.00;15.00;;;;;16.84;79.89;99740.63;6312137;20;2485803;-60
2023/06/01 05:03:07;;;;;;;;;18.50;14.00;;;;;16.87;79.04;99740.34;6279467;20;2500445;-60
2023/06/01 05:05:35;;;;;;;;;16.00;14.50;;;;;17.04;78.68;99744.31;6284202;20;2819175;-60
2023/06/01 05:08:04;;;;;;;;;15.00;14.00;;;;;17.52;76.97;99743.69;6279910;20;2805731;-61
2023/06/01 05:10:32;;;;;;;;;19.00;15.00;;;;;17.75;76.11;99747.03;6280809;20;2815907;-61
2023/06/01 05:13:01;;;;;;;;;19.67;16.33;;;;;17.69;77.70;99744.00;6281679;20;3569060;-61
2023/06/01 05:15:30;;;;;;;;;14.33;13.00;;;;;17.93;77.48;99741.84;6278516;20;3534682;-59
2023/06/01 05:17:57;;;;;;;;;14.00;12.50;;;;;18.21;76.26;99748.28;6281351;20;2797160;-61
2023/06/01 05:20:26;;;;;;;;;14.00;13.00;;;;;18.57;73.80;99745.88;6280560;20;3506536;-61
2023/06/01 05:22:54;;;;;;;;;16.00;14.00;;;;;18.46;75.11;99747.84;6311600;20;2492090;-60
2023/06/01 05:25:22;;;;;;;;;16.00;13.00;;;;;18.82;74.33;99751.72;6279292;20;3538956;-60
2023/06/01 05:27:50;;;;;;;;;14.00;13.00;;;;;18.76;74.07;99749.59;6310387;20;3519159;-61
2023/06/01 05:30:17;;;;;;;;;16.00;15.00;;;;;18.96;74.14;99751.28;6279796;20;2483646;-61
2023/06/01 05:32:45;;;;;;;;;15.00;12.00;;;;;18.95;74.41;99744.09;6281471;20;3526289;-61
2023/06/01 05:35:14;;;;;;;;;12.33;12.33;;;;;19.48;71.30;99753.53;6314542;20;3527455;-61
2023/06/01 05:37:41;;;;;;;;;12.50;11.50;;;;;19.53;70.04;99749.34;6282736;20;2787850;-60
2023/06/01 05:40:12;;;;;;;;;10.33;9.67;;;;;19.78;68.22;99746.13;6266117;20;2775600;-61
2023/06/01 05:42:40;;;;;;;;;9.67;9.67;;;;;19.92;64.31;99743.72;6309829;20;2775262;-61
2023/06/01 05:45:09;;;;;;;;;10.33;10.33;;;;;19.82;64.52;99747.50;6306304;20;2794208;-60
2023/06/01 05:47:38;;;;;;;;;13.00;10.00;;;;;20.31;65.35;99748.91;6316211;20;2788834;-62
2023/06/01 05:50:06;;;;;;;;;12.33;12.00;;;;;20.24;67.80;99744.22;6314217;20;3508705;-61
2023/06/01 05:52:33;;;;;;;;;10.00;10.00;;;;;20.39;66.02;99748.13;6327779;20;2669037;-60
2023/06/01 05:55:01;;;;;;;;;8.50;8.00;;;;;20.48;64.97;99751.78;6296751;20;2749069;-60
2023/06/01 05:57:29;;;;;;;;;10.33;8.00;;;;;20.62;65.34;99751.28;6289189;20;2775299;-60
2023/06/01 05:59:58;;;;;;;;;9.20;8.40;;;;;20.55;63.39;99751.03;6339010;20;2766954;-61
2023/06/01 06:02:26;;;;;;;;;9.00;8.00;;;;;21.06;59.67;99756.69;6286235;20;2742400;-61
2023/06/01 06:04:57;;;;;;;;;10.33;7.33;;;;;21.09;56.68;99761.00;6314533;20;2769024;-61
2023/06/01 06:07:26;;;;;;;;;7.60;5.60;;;;;21.27;57.10;99756.31;6341676;20;2740914;-61
2023/06/01 06:09:55;;;;;;;;;7.80;6.80;;;;;21.14;55.43;99767.69;6340370;20;2748309;-61
2023/06/01 06:12:24;;;;;;;;;7.20;7.20;;;;;21.54;55.44;99768.09;6310220;20;2729478;-61
2023/06/01 06:14:54;;;;;;;;;6.60;6.60;;;;;21.77;54.91;99773.88;6337228;20;2732765;-59
2023/06/01 06:17:22;;;;;;;;;8.33;7.00;;;;;21.88;54.32;99770.81;6319681;20;2750343;-60
2023/06/01 06:19:51;;;;;;;;;7.00;7.00;;;;;22.10;52.73;99764.75;6343790;20;2746160;-60
2023/06/01 06:22:19;;;;;;;;;12.00;7.67;;;;;22.20;52.19;99770.13;6293412;20;2771118;-60
2023/06/01 06:24:49;;;;;;;;;7.40;7.40;;;;;22.53;51.34;99768.28;6339672;20;2748314;-61
2023/06/01 06:27:17;;;;;;;;;7.67;6.67;;;;;22.65;50.17;99771.53;6293900;20;2738857;-60
2023/06/01 06:29:46;;;;;;;;;6.60;6.60;;;;;22.58;49.56;99768.63;6342451;20;2730524;-59
2023/06/01 06:32:15;;;;;;;;;6.00;6.00;;;;;22.49;48.35;99766.91;6342876;20;2740896;-60
2023/06/01 06:34:44;;;;;;;;;9.40;6.40;;;;;23.05;47.84;99769.84;6341916;20;2763797;-61
2023/06/01 06:37:13;;;;;;;;;8.40;7.40;;;;;23.17;46.25;99778.56;6310397;20;2741940;-58
2023/06/01 06:39:44;;;;;;;;;8.00;6.20;;;;;23.74;45.39;99778.44;6312296;20;2735757;-61
2023/06/01 06:42:12;;;;;;;;;12.00;12.00;;;;;23.46;47.20;99775.25;6316557;20;3514995;-61
2023/06/01 06:44:41;;;;;;;;;6.80;6.80;;;;;23.33;45.55;99775.81;6311401;20;2742426;-61
2023/06/01 06:47:14;;;;;;;;;10.40;9.00;;;;;23.56;46.29;99769.56;6311508;20;2778424;-60
2023/06/01 06:49:44;;;;;;;;;10.80;8.80;;;;;23.96;45.34;99773.19;6307632;20;2751320;-60
2023/06/01 06:52:12;;;;;;;;;14.33;14.33;;;;;24.15;45.59;99772.78;6287506;20;2788886;-59
2023/06/01 06:54:40;;;;;;;;;19.33;17.00;;;;;24.29;44.90;99774.72;6314814;20;3567989;-60
2023/06/01 06:57:10;;;;;;;;;9.00;9.00;;;;;24.18;43.69;99783.38;6288731;20;2744121;-60
2023/06/01 06:59:38;;;;;;;;;10.67;6.00;;;;;24.41;45.65;99777.94;6325230;20;2769027;-60
2023/06/01 07:02:06;;;;;;;;;7.33;7.33;;;;;24.45;43.72;99778.44;6317561;20;2739902;-60
2023/06/01 07:04:34;;;;;;;;;9.67;6.67;;;;;24.87;44.39;99777.09;6324341;20;2738801;-61
2023/06/01 07:07:04;;;;;;;;;7.33;7.33;;;;;24.55;43.63;99779.06;6320594;20;2731599;-61
2023/06/01 07:09:33;;;;;;;;;8.40;7.20;;;;;25.04;43.41;99777.78;6342166;20;2752363;-60
2023/06/01 07:12:02;;;;;;;;;7.40;6.00;;;;;24.99;42.14;99775.63;6308393;20;2744145;-61
2023/06/01 07:14:30;;;;;;;;;7.00;6.00;;;;;25.24;42.85;99775.41;6286157;20;2742087;-60
2023/06/01 07:16:58;;;;;;;;;7.00;7.00;;;;;25.72;41.65;99770.41;6316883;20;2749234;-61
2023/06/01 07:19:32;;;;;;;;;7.00;7.00;;;;;24.84;43.14;99771.97;6339999;20;2747153;-61
2023/06/01 07:22:01;;;;;;;;;7.67;7.00;;;;;25.90;42.41;99768.13;6288461;20;2730516;-61
2023/06/01 07:24:30;;;;;;;;;9.00;8.00;;;;;26.13;40.45;99773.50;6319890;20;2761836;-61
2023/06/01 07:26:59;;;;;;;;;7.60;5.80;;;;;25.66;41.75;99766.50;6341819;20;2737848;-60
2023/06/01 07:29:28;;;;;;;;;6.20;6.20;;;;;25.41;42.08;99779.69;6311468;20;2744065;-61
2023/06/01 07:31:56;;;;;;;;;7.00;6.33;;;;;26.05;38.98;99770.88;6287924;20;2739941;-60
2023/06/01 07:34:25;;;;;;;;;6.00;6.00;;;;;26.10;40.09;99773.06;6317021;20;2740886;-60
2023/06/01 07:36:54;;;;;;;;;6.00;6.00;;;;;26.18;40.91;99761.94;6341858;20;2733611;-59
2023/06/01 07:39:35;;;;;;;;;7.00;7.00;;;;;26.27;40.64;99767.09;6282383;20;2756508;-61
2023/06/01 07:42:03;;;;;;;;;6.00;6.00;;;;;26.01;39.88;99769.53;6319770;20;2727376;-60
2023/06/01 07:44:31;;;;;;;;;7.00;5.33;;;;;26.33;40.44;99776.50;6320125;20;2736793;-59
2023/06/01 07:47:01;;;;;;;;;9.20;7.80;;;;;26.03;39.29;99771.06;6343302;20;2761842;-60
2023/06/01 07:49:29;;;;;;;;;12.00;6.33;;;;;25.60;39.71;99767.28;6283452;20;2769284;-59
2023/06/01 07:51:58;;;;;;;;;7.00;7.00;;;;;25.85;37.57;99770.59;6316471;20;2750284;-60
2023/06/01 07:54:26;;;;;;;;;10.33;7.33;;;;;25.94;38.74;99763.97;6314437;20;2773195;-60
2023/06/01 07:56:56;;;;;;;;;4.33;3.00;;;;;25.90;39.56;99768.13;6319277;20;2752408;-59
2023/06/01 07:59:24;;;;;;;;;6.00;6.00;;;;;27.11;38.38;99766.47;6317055;20;2729498;-60
2023/06/01 08:01:52;;;;;;;;;7.00;7.00;;;;;26.80;39.22;99768.72;6317896;20;2750362;-59
2023/06/01 08:04:21;;;;;;;;;6.80;5.80;;;;;26.59;37.93;99762.16;6341484;20;2724292;-59
2023/06/01 08:06:52;;;;;;;;;8.00;6.33;;;;;26.76;37.91;99767.44;6313990;20;2750289;-60
2023/06/01 08:09:23;;;;;;;;;7.00;7.00;;;;;27.02;38.66;99761.31;6314006;20;2742073;-60
2023/06/01 08:11:53;;;;;;;;;7.67;5.33;;;;;27.26;37.97;99771.06;6305885;20;2740025;-60
2023/06/01 08:14:21;;;;;;;;;6.00;5.00;;;;;26.92;38.66;99767.16;6313591;20;2739894;-62
2023/06/01 08:16:51;;;;;;;;;7.33;6.00;;;;;27.00;38.56;99768.91;6310162;20;2748295;-60
2023/06/01 08:19:19;;;;;;;;;7.33;6.67;;;;;26.83;38.70;99763.69;6325030;20;2735732;-61
2023/06/01 08:21:47;;;;;;;;;7.67;7.33;;;;;26.92;38.85;99761.63;6323773;20;2743011;-60
2023/06/01 08:24:16;;;;;;;;;7.00;7.00;;;;;26.99;38.04;99767.19;6324787;20;2738808;-60
2023/06/01 08:26:44;;;;;;;;;8.00;8.00;;;;;27.19;39.04;99768.25;6321692;20;2756592;-60
2023/06/01 08:29:12;;;;;;;;;8.00;6.33;;;;;27.38;37.49;99765.84;6315784;20;2733702;-61
2023/06/01 08:31:40;;;;;;;;;10.00;7.00;;;;;26.75;36.65;99768.47;6312284;20;2770170;-57
2023/06/01 08:34:09;;;;;;;;;6.40;5.00;;;;;27.48;36.76;99761.66;6340559;20;2750350;-61
2023/06/01 08:36:37;;;;;;;;;7.33;7.33;;;;;27.30;37.55;99764.91;6283432;20;2746209;-61
2023/06/01 08:39:35;;;;;;;;;9.00;7.00;;;;;27.04;39.08;99768.31;6314974;20;2750354;-59
2023/06/01 08:42:33;;;;;;;;;7.33;7.33;;;;;26.93;38.29;99757.81;6314301;20;2746259;-57
2023/06/01 08:45:05;;;;;;;;;5.00;5.00;;;;;27.23;39.46;99761.28;6315052;20;2738958;-60
2023/06/01 08:47:36;;;;;;;;;7.33;6.00;;;;;26.97;37.97;99753.63;6310450;20;2740509;-59
2023/06/01 08:50:06;;;;;;;;;8.67;7.00;;;;;26.37;38.59;99747.53;6314135;20;2756557;-60
2023/06/01 08:52:35;;;;;;;;;7.33;6.00;;;;;26.97;38.38;99750.03;6312568;20;2731535;-60
2023/06/01 08:55:04;;;;;;;;;7.67;7.67;;;;;27.50;39.77;99747.69;6311141;20;2747225;-60
2023/06/01 08:57:32;;;;;;;;;6.67;6.67;;;;;27.60;37.73;99752.84;6319570;20;2746147;-60
2023/06/01 09:00:00;;;;;;;;;9.67;8.67;;;;;27.57;37.35;99743.91;6308753;20;3483589;-60
2023/06/01 09:02:28;;;;;;;;;9.00;8.00;;;;;27.53;37.73;99741.75;6313917;20;2744106;-60
2023/06/01 09:04:56;;;;;;;;;6.00;6.00;;;;;27.88;37.47;99738.97;6310687;20;2744114;-60
2023/06/01 09:07:25;;;;;;;;;7.00;7.00;;;;;27.44;37.42;99740.22;6309549;20;2756519;-59
2023/06/01 09:09:53;;;;;;;;;7.67;7.00;;;;;27.26;36.25;99736.06;6307601;20;2734821;-61
2023/06/01 09:12:29;;;;;;;;;8.00;5.67;;;;;27.91;34.55;99735.81;6310638;20;2744094;-60
2023/06/01 09:15:09;;;;;;;;;7.33;6.00;;;;;27.70;33.95;99731.22;6314867;20;2727463;-60
2023/06/01 09:17:39;;;;;;;;;6.67;6.67;;;;;27.88;34.35;99730.69;6315763;20;2750355;-59
2023/06/01 09:20:22;;;;;;;;;8.33;6.00;;;;;28.23;34.16;99737.00;6316063;20;2738824;-61
2023/06/01 09:22:50;;;;;;;;;7.67;6.33;;;;;27.18;33.99;99727.13;6319179;20;2746128;-61
2023/06/01 09:25:28;;;;;;;;;9.33;7.00;;;;;28.29;34.33;99730.63;6317040;20;2762778;-61
2023/06/01 09:27:59;;;;;;;;;8.00;7.00;;;;;27.25;34.70;99727.97;6318595;20;2741911;-61
2023/06/01 09:30:39;;;;;;;;;5.67;5.67;;;;;27.73;33.54;99723.41;6315356;20;2732717;-60
2023/06/01 09:33:15;;;;;;;;;7.00;7.00;;;;;27.91;33.55;99722.88;6327847;20;2748207;-61
2023/06/01 09:35:49;;;;;;;;;6.67;6.67;;;;;27.63;33.00;99720.16;6322257;20;2746141;-58
2023/06/01 09:38:23;;;;;;;;;7.33;7.00;;;;;27.64;32.14;99721.84;6320236;20;2746186;-59
2023/06/01 09:41:04;;;;;;;;;10.00;7.00;;;;;28.04;31.33;99722.03;6315913;20;2769096;-60
2023/06/01 09:43:37;;;;;;;;;6.00;6.00;;;;;28.13;29.72;99723.56;6318584;20;2742021;-60
2023/06/01 09:46:07;;;;;;;;;6.00;6.00;;;;;28.00;31.88;99727.16;6325285;20;2742065;-58
2023/06/01 09:48:36;;;;;;;;;7.67;5.33;;;;;28.45;31.03;99729.41;6318886;20;2738908;-57
2023/06/01 09:51:29;;;;;;;;;5.00;5.00;;;;;28.19;32.31;99728.25;6343980;20;2747155;-61
2023/06/01 09:53:58;;;;;;;;;3.20;3.20;;;;;28.80;32.21;99724.56;6311189;20;2744058;-59
2023/06/01 09:56:26;;;;;;;;;8.00;6.67;;;;;28.01;32.87;99720.56;6288934;20;2733758;-61
2023/06/01 09:59:01;;;;;;;;;6.00;6.00;;;;;28.28;30.93;99717.00;6320014;20;2735804;-61
2023/06/01 10:01:31;;;;;;;;;5.00;4.00;;;;;28.47;32.00;99719.03;6322863;20;2736773;-59
2023/06/01 10:04:01;;;;;;;;;6.67;6.67;;;;;28.63;32.84;99718.59;6320373;20;2737961;-60
2023/06/01 10:06:33;;;;;;;;;9.33;6.67;;;;;28.83;33.08;99728.81;6313361;20;2761759;-49
2023/06/01 10:09:04;;;;;;;;;5.67;5.67;;;;;28.44;32.55;99711.16;6316286;20;2732607;-49
2023/06/01 10:11:33;;;;;;;;;7.00;7.00;;;;;28.81;33.41;99712.47;6316469;20;2742017;-48
2023/06/01 10:14:02;;;;;;;;;10.33;8.00;;;;;29.29;32.20;99714.13;6313956;20;2761687;-50
2023/06/01 10:16:31;;;;;;;;;7.33;5.67;;;;;28.82;32.26;99708.63;6308692;20;2743085;-51
2023/06/01 10:19:00;;;;;;;;;8.00;6.67;;;;;28.47;31.90;99702.44;6315280;20;2744172;-52
2023/06/01 10:21:29;;;;;;;;;5.80;4.80;;;;;28.52;30.80;99707.34;6339692;20;2736798;-48
2023/06/01 10:23:57;;;;;;;;;7.00;7.00;;;;;28.64;31.37;99700.94;6283327;20;2744069;-49
2023/06/01 10:26:28;;;;;;;;;6.67;5.33;;;;;28.95;30.54;99690.34;6317551;20;2733585;-47
2023/06/01 10:28:58;;;;;;;;;8.33;8.33;;;;;29.15;31.25;99690.31;6315416;20;2750297;-46
2023/06/01 10:31:37;;;;;;;;;7.67;7.67;;;;;29.34;32.28;99697.75;6316167;20;2744057;-50
2023/06/01 10:34:07;;;;;;;;;7.33;7.33;;;;;29.21;32.45;99679.25;6316295;20;2748206;-48
2023/06/01 10:36:53;;;;;;;;;9.00;8.00;;;;;29.86;33.49;99686.72;6325283;20;2745189;-48
2023/06/01 10:39:32;;;;;;;;;12.33;9.33;;;;;29.20;32.79;99683.09;6315763;20;2774259;-50
2023/06/01 10:42:14;;;;;;;;;7.00;7.00;;;;;29.27;31.64;99677.53;6320533;20;2737897;-49
2023/06/01 10:44:42;;;;;;;;;9.67;8.67;;;;;29.71;32.71;99679.56;6318434;20;3476434;-48
2023/06/01 10:47:10;;;;;;;;;7.33;7.33;;;;;29.21;32.79;99672.88;6316645;20;2756688;-50
2023/06/01 10:49:51;;;;;;;;;9.33;9.33;;;;;29.71;32.93;99675.94;6315130;20;3481728;-49
2023/06/01 10:52:34;;;;;;;;;9.00;7.33;;;;;28.60;32.84;99669.31;6315863;20;2744056;-49
2023/06/01 10:55:11;;;;;;;;;9.00;8.00;;;;;28.64;33.85;99662.28;6316838;20;2737788;-50
2023/06/01 10:57:44;;;;;;;;;4.40;2.80;;;;;28.93;34.26;99664.81;6340053;20;2727329;-50
2023/06/01 11:00:15;;;;;;;;;10.33;9.00;;;;;29.66;33.21;99659.16;6293272;20;2769055;-50
2023/06/01 11:02:59;;;;;;;;;8.00;8.00;;;;;29.70;34.04;99655.72;6322938;20;2746148;-47
2023/06/01 11:05:34;;;;;;;;;7.00;7.00;;;;;29.13;32.92;99659.28;6330418;20;2746117;-47
2023/06/01 11:08:03;;;;;;;;;9.00;7.67;;;;;29.26;32.61;99653.72;6313379;20;2756526;-47
2023/06/01 11:10:54;;;;;;;;;10.33;6.33;;;;;28.89;33.29;99645.06;6315271;20;2766062;-50
2023/06/01 11:13:35;;;;;;;;;9.67;8.00;;;;;29.24;33.52;99642.03;6322700;20;2758614;-48
2023/06/01 11:16:14;;;;;;;;;8.33;8.33;;;;;29.06;32.78;99635.25;6315433;20;2756619;-48
2023/06/01 11:22:03;;;;;;;;;9.67;9.67;;;;;28.86;32.58;99638.03;6311937;20;3488863;-49
2023/06/01 11:24:37;;;;;;;;;8.00;7.00;;;;;29.27;31.51;99628.59;6314729;20;3470153;-52
2023/06/01 11:27:08;;;;;;;;;12.00;10.33;;;;;29.29;33.19;99620.09;6314086;20;3515860;-48